Time;durP1;ratioP1;P1;durP2;ratioP2;P2;SDS_P1;SDS_P2;PMS_P1;PMS_P2;Temp;Humidity;BMP_temperature;BMP_pressure;BME280_temperature;BME280_humidity;BME280_pressure;Samples;Min_cycle;Max_cycle;Signal;HPM_P1;HPM_P2
2022/05/03 00:02:03;;;;;;;13.05;10.13;;;11.10;92.90;;;;;;4907084;29;20032;-70
2022/05/03 00:04:38;;;;;;;11.60;10.07;;;11.10;92.90;;;;;;4908812;29;20060;-70
2022/05/03 00:07:19;;;;;;;15.00;9.00;;;11.20;93.00;;;;;;4908707;29;20118;-70
2022/05/03 00:09:56;;;;;;;11.00;9.13;;;11.20;92.90;;;;;;4908392;29;20111;-70
2022/05/03 00:12:31;;;;;;;14.75;9.85;;;11.20;93.00;;;;;;4901521;29;20025;-70
2022/05/03 00:14:59;;;;;;;12.68;9.80;;;11.20;93.00;;;;;;4890436;29;20040;-70
2022/05/03 00:17:26;;;;;;;11.73;8.80;;;11.10;92.90;;;;;;4896757;29;20041;-70
2022/05/03 00:19:53;;;;;;;11.07;9.05;;;11.10;93.00;;;;;;4906535;29;20044;-70
2022/05/03 00:22:19;;;;;;;11.00;9.05;;;11.10;93.10;;;;;;4901783;29;20032;-70
2022/05/03 00:24:45;;;;;;;11.98;9.35;;;11.00;93.10;;;;;;4902193;29;20111;-70
2022/05/03 00:27:13;;;;;;;11.20;9.82;;;11.00;93.20;;;;;;4896542;29;20524;-70
2022/05/03 00:29:39;;;;;;;13.90;10.23;;;11.10;93.20;;;;;;4907935;29;20028;-70
2022/05/03 00:32:05;;;;;;;12.63;9.00;;;11.00;93.20;;;;;;4908354;29;20051;-70
2022/05/03 00:34:33;;;;;;;10.77;8.48;;;11.00;93.30;;;;;;4906009;29;20032;-70
2022/05/03 00:36:59;;;;;;;10.05;8.25;;;11.00;93.40;;;;;;4906616;29;20110;-70
2022/05/03 00:39:25;;;;;;;11.82;9.35;;;11.00;93.40;;;;;;4907386;29;20024;-70
2022/05/03 00:42:12;;;;;;;15.05;10.15;;;11.00;93.40;;;;;;4907917;29;20467;-70
2022/05/03 00:45:19;;;;;;;13.20;9.02;;;10.90;93.50;;;;;;4894856;29;20095;-70
2022/05/03 00:47:52;;;;;;;12.93;9.82;;;10.90;93.80;;;;;;4904005;29;20036;-70
2022/05/03 00:50:21;;;;;;;14.13;8.98;;;10.90;93.70;;;;;;4899390;29;20127;-70
2022/05/03 00:52:54;;;;;;;11.70;9.35;;;10.90;93.60;;;;;;4903141;29;20032;-71
2022/05/03 00:55:59;;;;;;;13.52;10.38;;;11.00;93.70;;;;;;4903652;29;20023;-70
2022/05/03 00:58:51;;;;;;;12.63;9.10;;;10.90;93.70;;;;;;4893947;29;20039;-70
2022/05/03 01:01:16;;;;;;;;;;;10.90;93.80;;;;;;4906883;29;20058;-70
2022/05/03 01:03:54;;;;;;;12.38;9.02;;;10.90;93.90;;;;;;4908029;29;19910;-70
2022/05/03 01:06:38;;;;;;;13.48;8.88;;;10.90;93.70;;;;;;4892022;29;20028;-70
2022/05/03 01:09:09;;;;;;;11.50;9.00;;;10.90;93.80;;;;;;4907869;29;20342;-70
2022/05/03 01:11:40;;;;;;;13.23;9.82;;;10.90;93.80;;;;;;4908184;29;20031;-71
2022/05/03 01:14:40;;;;;;;13.40;9.70;;;10.80;93.80;;;;;;4893914;29;20490;-70
2022/05/03 01:17:24;;;;;;;11.98;9.48;;;10.80;93.90;;;;;;4904687;29;20074;-70
2022/05/03 01:20:01;;;;;;;11.75;8.90;;;10.90;94.00;;;;;;4908169;29;20439;-70
2022/05/03 01:22:42;;;;;;;13.27;9.95;;;10.90;94.00;;;;;;4907269;29;20107;-70
2022/05/03 01:25:43;;;;;;;13.02;9.63;;;10.90;94.00;;;;;;4900741;29;20029;-70
2022/05/03 01:28:20;;;;;;;13.70;9.85;;;10.90;93.90;;;;;;4903962;29;20092;-70
2022/05/03 01:30:49;;;;;;;14.88;10.60;;;10.90;93.90;;;;;;4907401;29;20032;-70
2022/05/03 01:33:34;;;;;;;14.13;10.02;;;10.90;93.90;;;;;;4902063;29;20510;-70
2022/05/03 01:36:03;;;;;;;13.13;10.13;;;10.90;93.90;;;;;;4900499;29;20496;-71
2022/05/03 01:38:34;;;;;;;12.98;10.18;;;10.90;94.00;;;;;;4904725;29;20063;-70
2022/05/03 01:41:30;;;;;;;14.45;11.23;;;10.90;94.00;;;;;;4905834;29;20585;-70
2022/05/03 01:44:14;;;;;;;15.50;10.52;;;10.80;94.00;;;;;;4905645;29;20032;-70
2022/05/03 01:46:40;;;;;;;13.23;10.68;;;10.80;94.00;;;;;;4911401;29;20028;-70
2022/05/03 01:52:16;;;;;;;14.77;11.45;;;10.80;94.00;;;;;;4903032;29;20066;-70
2022/05/03 01:55:00;;;;;;;15.00;11.30;;;10.80;93.90;;;;;;4906037;29;20040;-70
2022/05/03 01:57:37;;;;;;;13.43;9.85;;;10.80;94.00;;;;;;4901126;29;20044;-70
2022/05/03 02:00:09;;;;;;;13.55;11.13;;;10.70;94.00;;;;;;4898926;29;20063;-70
2022/05/03 02:02:59;;;;;;;14.60;10.05;;;10.70;94.00;;;;;;4903908;29;20862;-71
2022/05/03 02:05:37;;;;;;;12.73;10.20;;;10.70;94.00;;;;;;4905466;29;20306;-70
2022/05/03 02:08:03;;;;;;;13.48;10.10;;;10.70;94.10;;;;;;4904733;29;20115;-70
2022/05/03 02:10:53;;;;;;;15.35;11.05;;;10.70;94.20;;;;;;4905345;29;20035;-70
2022/05/03 02:16:42;;;;;;;12.25;9.85;;;10.70;94.30;;;;;;4904854;29;20047;-70
2022/05/03 02:19:25;;;;;;;15.38;11.05;;;10.70;94.30;;;;;;4903957;29;20032;-70
2022/05/03 02:22:11;;;;;;;14.00;11.05;;;10.70;94.40;;;;;;4904320;29;20044;-70
2022/05/03 02:25:00;;;;;;;14.38;10.40;;;10.70;94.60;;;;;;4904311;29;20025;-70
2022/05/03 02:27:28;;;;;;;15.55;11.80;;;10.60;94.60;;;;;;4901871;29;20244;-70
2022/05/03 02:29:57;;;;;;;13.95;9.95;;;10.60;94.60;;;;;;4905197;29;20024;-70
2022/05/03 02:33:04;;;;;;;17.45;11.20;;;10.50;94.50;;;;;;4903684;29;20071;-70
2022/05/03 02:35:35;;;;;;;15.55;11.07;;;10.40;94.70;;;;;;4905510;29;20602;-70
2022/05/03 02:38:05;;;;;;;16.95;11.60;;;10.50;94.90;;;;;;4901927;29;20074;-70
2022/05/03 02:40:32;;;;;;;16.10;11.63;;;10.50;95.00;;;;;;4905855;29;20054;-70
2022/05/03 02:42:58;;;;;;;13.40;11.50;;;10.50;95.00;;;;;;4898703;29;20064;-70
2022/05/03 02:45:25;;;;;;;16.90;11.95;;;10.50;94.90;;;;;;4887821;29;20085;-70
2022/05/03 02:48:18;;;;;;;16.05;10.82;;;10.50;94.90;;;;;;4902394;29;20039;-70
2022/05/03 02:50:59;;;;;;;14.50;11.57;;;10.50;94.90;;;;;;4904939;29;20439;-69
2022/05/03 02:53:47;;;;;;;16.58;11.77;;;10.40;94.90;;;;;;4904619;29;20442;-70
2022/05/03 02:56:15;;;;;;;15.85;11.30;;;10.50;95.00;;;;;;4906002;29;20043;-70
2022/05/03 02:59:06;;;;;;;14.23;11.25;;;10.40;95.00;;;;;;4905793;29;20247;-70
2022/05/03 03:02:09;;;;;;;17.63;12.30;;;10.40;95.10;;;;;;4905240;29;20051;-70
2022/05/03 03:04:44;;;;;;;14.68;10.95;;;10.40;95.00;;;;;;4901988;29;20494;-70
2022/05/03 03:07:16;;;;;;;15.43;11.98;;;10.40;95.10;;;;;;4905448;29;20048;-70
2022/05/03 03:10:02;;;;;;;16.42;12.13;;;10.40;95.10;;;;;;4904684;29;20036;-70
2022/05/03 03:12:55;;;;;;;15.50;11.32;;;10.40;95.30;;;;;;4905409;29;20044;-70
2022/05/03 03:15:27;;;;;;;15.40;11.27;;;10.40;95.60;;;;;;4901579;29;20036;-70
2022/05/03 03:17:55;;;;;;;18.42;13.25;;;10.40;95.20;;;;;;4903304;29;20036;-70
2022/05/03 03:20:36;;;;;;;20.30;12.75;;;10.40;95.20;;;;;;4905083;29;20040;-70
2022/05/03 03:23:05;;;;;;;18.83;12.77;;;10.40;95.20;;;;;;4903486;29;20043;-70
2022/05/03 03:25:32;;;;;;;17.77;12.82;;;10.40;95.20;;;;;;4904784;29;20054;-70
2022/05/03 03:27:58;;;;;;;22.15;13.57;;;10.50;95.20;;;;;;4906429;29;20068;-70
2022/05/03 03:30:24;;;;;;;15.98;11.82;;;10.40;95.20;;;;;;4905647;29;20087;-70
2022/05/03 03:32:52;;;;;;;15.57;12.20;;;10.40;95.20;;;;;;4905557;29;20491;-70
2022/05/03 03:35:19;;;;;;;17.05;13.07;;;10.30;95.10;;;;;;4898606;29;20407;-70
2022/05/03 03:37:46;;;;;;;20.30;13.10;;;10.30;95.30;;;;;;4905145;29;20040;-70
2022/05/03 03:40:15;;;;;;;18.63;13.02;;;10.30;95.50;;;;;;4906022;29;20429;-70
2022/05/03 03:42:45;;;;;;;18.95;13.05;;;10.30;95.50;;;;;;4906645;29;20036;-70
2022/05/03 03:45:12;;;;;;;16.45;11.90;;;10.30;95.50;;;;;;4904478;29;20039;-70
2022/05/03 03:47:39;;;;;;;15.95;11.45;;;10.30;95.50;;;;;;4905235;29;20063;-70
2022/05/03 03:50:06;;;;;;;17.73;12.77;;;10.20;95.40;;;;;;4901142;29;20064;-70
2022/05/03 03:52:33;;;;;;;16.33;12.63;;;10.20;95.50;;;;;;4894441;29;20316;-70
2022/05/03 03:55:00;;;;;;;17.52;12.75;;;10.20;95.50;;;;;;4903796;29;21266;-70
2022/05/03 03:57:26;;;;;;;20.27;13.15;;;10.10;95.60;;;;;;4904255;29;20133;-70
2022/05/03 03:59:52;;;;;;;16.77;13.73;;;10.10;95.80;;;;;;4904409;29;20054;-70
2022/05/03 04:02:19;;;;;;;16.83;13.18;;;10.10;95.90;;;;;;4920425;29;20130;-70
2022/05/03 04:04:48;;;;;;;20.98;14.30;;;10.10;95.90;;;;;;4908146;29;20485;-70
2022/05/03 04:07:13;;;;;;;19.60;13.63;;;10.10;95.90;;;;;;4905693;29;20071;-69
2022/05/03 04:09:39;;;;;;;17.17;13.60;;;10.10;95.90;;;;;;4889849;29;20060;-70
2022/05/03 04:12:05;;;;;;;20.60;14.13;;;10.10;96.00;;;;;;4901550;29;20032;-70
2022/05/03 04:14:31;;;;;;;18.88;13.82;;;10.10;96.00;;;;;;4924316;29;20047;-70
2022/05/03 04:16:58;;;;;;;18.05;13.80;;;10.10;96.00;;;;;;4907230;29;20032;-70
2022/05/03 04:19:24;;;;;;;23.00;13.85;;;10.10;96.10;;;;;;4907544;29;20028;-70
2022/05/03 04:21:50;;;;;;;20.10;14.70;;;10.10;96.00;;;;;;4909490;29;20075;-70
2022/05/03 04:24:16;;;;;;;21.00;14.25;;;10.10;96.00;;;;;;4907453;29;20039;-69
2022/05/03 04:26:41;;;;;;;23.25;14.43;;;10.20;96.00;;;;;;4904396;29;20219;-70
2022/05/03 04:29:07;;;;;;;18.83;13.07;;;10.10;95.90;;;;;;4909293;29;20040;-70
2022/05/03 04:31:34;;;;;;;17.35;13.50;;;10.10;95.80;;;;;;4908276;29;20043;-70
2022/05/03 04:34:02;;;;;;;20.48;13.63;;;10.10;95.90;;;;;;4907509;29;20112;-70
2022/05/03 04:36:29;;;;;;;16.50;12.45;;;10.20;95.80;;;;;;4908497;29;20052;-70
2022/05/03 04:38:56;;;;;;;17.67;13.02;;;10.10;95.80;;;;;;4909070;29;20068;-70
2022/05/03 04:41:22;;;;;;;17.05;11.55;;;10.20;95.80;;;;;;4905757;29;20033;-70
2022/05/03 04:43:49;;;;;;;16.58;12.63;;;10.20;95.80;;;;;;4891930;29;20441;-70
2022/05/03 04:46:14;;;;;;;16.23;12.32;;;10.20;95.70;;;;;;4908048;29;20123;-70
2022/05/03 04:48:41;;;;;;;15.68;12.55;;;10.10;95.60;;;;;;4907778;29;20143;-70
2022/05/03 04:51:07;;;;;;;17.35;12.63;;;10.10;95.70;;;;;;4907848;29;20032;-70
2022/05/03 04:53:33;;;;;;;20.65;12.85;;;10.20;95.80;;;;;;4906392;29;20025;-70
2022/05/03 04:55:59;;;;;;;20.25;13.98;;;10.10;95.70;;;;;;4907228;29;20024;-70
2022/05/03 04:58:25;;;;;;;19.10;13.18;;;10.10;95.70;;;;;;4903353;29;20040;-70
2022/05/03 05:00:51;;;;;;;18.88;13.35;;;10.20;95.80;;;;;;4906037;29;20431;-70
2022/05/03 05:03:16;;;;;;;19.15;14.13;;;10.20;95.60;;;;;;4908188;29;20035;-70
2022/05/03 05:05:42;;;;;;;19.52;14.23;;;10.20;95.50;;;;;;4904281;29;20117;-70
2022/05/03 05:08:08;;;;;;;19.95;13.85;;;10.30;95.40;;;;;;4908181;29;20051;-70
2022/05/03 05:10:34;;;;;;;19.17;13.65;;;10.30;95.40;;;;;;4907779;29;20044;-70
2022/05/03 05:13:00;;;;;;;18.27;13.23;;;10.30;95.30;;;;;;4907160;29;20032;-70
2022/05/03 05:15:27;;;;;;;21.58;14.05;;;10.30;95.30;;;;;;4904029;29;20036;-70
2022/05/03 05:17:58;;;;;;;16.52;12.80;;;10.40;95.30;;;;;;4907531;29;20068;-69
2022/05/03 05:20:25;;;;;;;18.88;14.43;;;10.40;95.20;;;;;;4903171;29;20075;-70
2022/05/03 05:22:51;;;;;;;21.42;14.00;;;10.40;95.20;;;;;;4908464;29;20103;-70
2022/05/03 05:25:16;;;;;;;19.58;13.18;;;10.50;95.20;;;;;;4907084;29;20496;-70
2022/05/03 05:27:42;;;;;;;18.05;13.27;;;10.50;95.10;;;;;;4906837;29;20040;-69
2022/05/03 05:30:08;;;;;;;18.25;13.15;;;10.60;95.00;;;;;;4908026;29;20436;-70
2022/05/03 05:32:35;;;;;;;19.42;12.77;;;10.60;94.90;;;;;;4904268;29;20033;-70
2022/05/03 05:35:01;;;;;;;17.08;13.05;;;10.60;94.80;;;;;;4900380;29;20506;-70
2022/05/03 05:37:27;;;;;;;17.23;13.65;;;10.70;94.80;;;;;;4906950;29;20111;-70
2022/05/03 05:39:52;;;;;;;19.42;14.07;;;10.80;94.60;;;;;;4907315;29;20500;-70
2022/05/03 05:42:18;;;;;;;17.27;13.35;;;10.90;94.70;;;;;;4905962;29;20148;-70
2022/05/03 05:44:43;;;;;;;17.58;12.60;;;11.00;94.70;;;;;;4906283;29;20032;-70
2022/05/03 05:47:09;;;;;;;16.20;12.25;;;11.10;94.10;;;;;;4903238;29;20031;-70
2022/05/03 05:49:35;;;;;;;16.15;12.50;;;11.20;93.80;;;;;;4903015;29;20068;-70
2022/05/03 05:54:44;;;;;;;15.02;11.20;;;11.40;93.60;;;;;;4901586;29;20039;-70
2022/05/03 05:57:10;;;;;;;16.67;12.43;;;11.50;93.20;;;;;;4883219;29;23274;-69
2022/05/03 05:59:36;;;;;;;14.80;11.25;;;11.70;93.00;;;;;;4896287;29;20063;-71
2022/05/03 06:02:02;;;;;;;16.35;11.90;;;11.70;93.20;;;;;;4896577;29;20499;-70
2022/05/03 06:04:28;;;;;;;18.83;12.38;;;11.90;93.00;;;;;;4912144;29;20036;-70
2022/05/03 06:06:54;;;;;;;13.38;11.23;;;12.00;92.80;;;;;;4904359;29;20086;-71
2022/05/03 06:09:20;;;;;;;16.75;11.73;;;12.10;92.50;;;;;;4905165;29;20067;-70
2022/05/03 06:11:46;;;;;;;16.50;12.07;;;12.20;92.20;;;;;;4906885;29;20458;-71
2022/05/03 06:14:11;;;;;;;15.10;11.57;;;12.20;91.90;;;;;;4905214;29;20508;-71
2022/05/03 06:16:54;;;;;;;13.40;11.55;;;12.20;92.10;;;;;;4904209;29;20475;-71
2022/05/03 06:19:21;;;;;;;16.75;12.18;;;12.10;92.20;;;;;;4905401;29;20519;-71
2022/05/03 06:21:47;;;;;;;16.20;11.77;;;12.20;92.10;;;;;;4920201;29;20476;-71
2022/05/03 06:24:13;;;;;;;15.68;11.65;;;12.40;91.90;;;;;;4904564;29;20114;-71
2022/05/03 06:26:39;;;;;;;17.73;11.80;;;12.50;91.70;;;;;;4904073;29;20115;-71
2022/05/03 06:29:06;;;;;;;16.27;11.70;;;12.60;90.70;;;;;;4904352;29;20062;-71
2022/05/03 06:31:39;;;;;;;13.30;10.55;;;12.80;90.30;;;;;;4905988;29;20036;-71
2022/05/03 06:34:05;;;;;;;14.68;10.43;;;12.90;88.60;;;;;;4903211;29;20476;-71
2022/05/03 06:36:32;;;;;;;12.20;10.48;;;13.10;89.30;;;;;;4904044;29;20060;-71
2022/05/03 06:38:59;;;;;;;12.90;9.23;;;13.40;88.30;;;;;;4904303;29;20507;-70
2022/05/03 06:41:24;;;;;;;12.77;10.52;;;13.40;87.60;;;;;;4896431;29;20126;-71
2022/05/03 06:43:50;;;;;;;14.68;10.27;;;13.70;86.20;;;;;;4895628;29;20024;-71
2022/05/03 06:46:17;;;;;;;15.25;12.05;;;13.70;84.30;;;;;;4905217;29;20044;-71
2022/05/03 06:48:42;;;;;;;17.95;11.32;;;13.90;84.30;;;;;;4905417;29;20034;-71
2022/05/03 06:51:08;;;;;;;15.95;11.43;;;14.10;83.00;;;;;;4897362;29;20032;-71
2022/05/03 06:53:34;;;;;;;14.77;10.10;;;14.10;79.00;;;;;;4901553;29;20118;-71
2022/05/03 06:55:59;;;;;;;15.02;11.55;;;14.30;80.60;;;;;;4899150;29;20032;-70
2022/05/03 06:58:25;;;;;;;13.52;10.32;;;14.40;78.00;;;;;;4890254;29;20055;-71
2022/05/03 07:00:51;;;;;;;14.50;12.00;;;14.30;81.80;;;;;;4885312;29;20953;-71
2022/05/03 07:03:17;;;;;;;16.83;12.38;;;14.40;76.50;;;;;;4897145;29;20119;-71
2022/05/03 07:05:43;;;;;;;13.75;10.90;;;14.40;77.00;;;;;;4895027;29;20032;-71
2022/05/03 07:08:10;;;;;;;21.65;14.25;;;14.40;79.80;;;;;;4894506;29;20040;-71
2022/05/03 07:10:36;;;;;;;13.43;10.90;;;14.40;76.20;;;;;;4901189;29;20039;-71
2022/05/03 07:13:03;;;;;;;16.02;12.30;;;14.30;78.80;;;;;;4903268;29;20035;-71
2022/05/03 07:15:30;;;;;;;20.08;15.38;;;14.30;78.30;;;;;;4900254;29;20043;-71
2022/05/03 07:23:27;;;;;;;17.00;13.02;;;14.40;78.20;;;;;;4903368;29;20099;-72
2022/05/03 07:25:53;;;;;;;22.58;15.43;;;14.60;78.90;;;;;;4905284;29;20032;-71
2022/05/03 07:28:19;;;;;;;22.48;16.23;;;14.50;75.40;;;;;;4904180;29;20110;-71
2022/05/03 07:30:45;;;;;;;25.38;17.42;;;14.50;72.60;;;;;;4903208;29;20535;-72
2022/05/03 07:33:11;;;;;;;23.85;16.15;;;14.50;74.50;;;;;;4902518;29;20032;-71
2022/05/03 07:35:37;;;;;;;21.33;14.55;;;14.50;77.60;;;;;;4893003;29;20032;-71
2022/05/03 07:38:02;;;;;;;22.77;16.05;;;14.60;77.30;;;;;;4904374;29;20526;-71
2022/05/03 07:40:28;;;;;;;23.73;15.88;;;14.50;74.70;;;;;;4898541;29;20079;-71
2022/05/03 07:42:54;;;;;;;26.58;16.92;;;14.50;77.60;;;;;;4901597;29;20099;-73
2022/05/03 07:45:20;;;;;;;27.75;16.98;;;14.70;72.30;;;;;;4898212;29;20123;-73
2022/05/03 07:47:46;;;;;;;22.08;16.45;;;14.90;72.50;;;;;;4901594;29;20252;-73
2022/05/03 07:50:11;;;;;;;22.25;15.80;;;15.00;73.30;;;;;;4900625;29;20096;-73
2022/05/03 07:52:39;;;;;;;28.40;19.02;;;15.10;75.10;;;;;;4906376;29;20040;-73
2022/05/03 07:55:07;;;;;;;29.58;18.92;;;15.20;74.00;;;;;;4891585;29;20024;-72
2022/05/03 07:57:33;;;;;;;28.45;18.02;;;15.40;70.80;;;;;;4894845;29;20040;-73
2022/05/03 07:59:59;;;;;;;27.35;18.60;;;15.60;69.30;;;;;;4887192;29;20195;-73
2022/05/03 08:02:26;;;;;;;26.48;16.88;;;15.70;65.80;;;;;;4896787;29;20447;-73
2022/05/03 08:04:53;;;;;;;29.13;19.15;;;15.80;65.10;;;;;;4904703;29;20300;-72
2022/05/03 08:07:19;;;;;;;30.98;19.00;;;15.80;69.50;;;;;;4904093;29;20040;-72
2022/05/03 08:09:46;;;;;;;26.98;17.50;;;15.70;67.40;;;;;;4897459;29;20028;-72
2022/05/03 08:12:12;;;;;;;26.63;18.25;;;15.80;66.90;;;;;;4904607;29;20052;-73
2022/05/03 08:14:38;;;;;;;29.02;18.08;;;15.70;66.70;;;;;;4920596;29;20036;-72
2022/05/03 08:17:04;;;;;;;25.98;17.95;;;15.70;66.90;;;;;;4906201;29;20138;-72
2022/05/03 08:19:30;;;;;;;26.27;16.75;;;15.80;67.30;;;;;;4907417;29;20036;-73
2022/05/03 08:21:56;;;;;;;25.38;15.20;;;15.70;70.50;;;;;;4906724;29;20064;-72
2022/05/03 08:24:23;;;;;;;27.17;16.83;;;15.70;69.60;;;;;;4906428;29;20503;-72
2022/05/03 08:26:49;;;;;;;26.25;18.15;;;15.70;67.20;;;;;;4904166;29;20100;-73
2022/05/03 08:29:15;;;;;;;22.70;17.05;;;16.00;68.20;;;;;;4906537;29;20024;-71
2022/05/03 08:31:41;;;;;;;25.13;16.80;;;16.20;67.20;;;;;;4904136;29;20119;-73
2022/05/03 08:34:07;;;;;;;24.27;16.48;;;16.40;68.40;;;;;;4906395;29;20128;-74
2022/05/03 08:36:33;;;;;;;29.27;18.08;;;16.60;69.20;;;;;;4904959;29;20032;-71
2022/05/03 08:42:02;;;;;;;27.10;15.77;;;16.70;66.20;;;;;;4906206;29;20094;-71
2022/05/03 08:44:28;;;;;;;25.90;17.80;;;16.90;67.10;;;;;;4907881;29;20116;-72
2022/05/03 08:46:59;;;;;;;26.42;17.70;;;17.20;64.80;;;;;;4902393;29;20032;-73
2022/05/03 08:49:32;;;;;;;27.53;18.23;;;17.40;65.80;;;;;;4897233;29;20033;-73
2022/05/03 08:52:02;;;;;;;28.48;18.15;;;17.50;65.30;;;;;;4899917;29;20286;-73
2022/05/03 08:54:28;;;;;;;27.60;17.80;;;17.60;66.80;;;;;;4899409;29;20068;-73
2022/05/03 08:56:55;;;;;;;28.77;18.42;;;17.80;62.70;;;;;;4892196;29;20135;-73
2022/05/03 08:59:22;;;;;;;29.00;18.90;;;17.80;63.70;;;;;;4891657;29;20044;-73
2022/05/03 09:01:48;;;;;;;27.80;19.70;;;17.70;65.70;;;;;;4893373;29;20091;-73
2022/05/03 09:04:14;;;;;;;29.13;20.00;;;17.90;61.70;;;;;;4892920;29;20130;-73
2022/05/03 09:06:41;;;;;;;27.88;20.58;;;18.00;63.20;;;;;;4868983;29;20459;-73
2022/05/03 09:09:10;;;;;;;33.05;22.20;;;18.00;64.20;;;;;;4890533;29;20055;-76
2022/05/03 09:11:46;;;;;;;30.60;20.17;;;18.10;60.60;;;;;;4893122;29;20037;-71
2022/05/03 09:14:13;;;;;;;27.05;19.45;;;18.10;62.40;;;;;;4868045;29;20075;-71
2022/05/03 09:16:51;;;;;;;33.85;21.08;;;18.40;64.10;;;;;;4880631;29;20260;-71
2022/05/03 09:19:24;;;;;;;32.13;22.13;;;18.20;61.40;;;;;;4906705;29;20028;-71
2022/05/03 09:24:55;;;;;;;33.33;21.63;;;18.30;60.50;;;;;;4888264;29;20047;-71
2022/05/03 09:27:23;;;;;;;33.58;22.17;;;18.60;63.40;;;;;;4902699;29;20042;-72
2022/05/03 09:30:05;;;;;;;32.63;22.10;;;18.90;59.00;;;;;;4903487;29;20590;-71
2022/05/03 09:32:42;;;;;;;33.53;22.25;;;19.30;61.00;;;;;;4898489;29;20028;-71
2022/05/03 09:35:31;;;;;;;37.70;24.13;;;19.50;59.10;;;;;;4901525;29;20559;-71
2022/05/03 09:37:57;;;;;;;33.72;21.95;;;20.30;56.20;;;;;;4903602;29;20038;-71
2022/05/03 09:40:23;;;;;;;33.38;22.52;;;20.40;54.70;;;;;;4902622;29;20629;-71
2022/05/03 09:42:56;;;;;;;30.58;22.60;;;20.50;52.70;;;;;;4903938;29;20478;-71
2022/05/03 09:45:28;;;;;;;34.33;23.13;;;20.20;57.50;;;;;;4897246;29;20044;-71
2022/05/03 09:47:56;;;;;;;35.45;23.50;;;20.40;53.90;;;;;;4888811;29;20570;-71
2022/05/03 09:50:36;;;;;;;30.85;21.55;;;21.00;54.60;;;;;;4891103;29;20126;-71
2022/05/03 09:53:32;;;;;;;32.63;21.60;;;21.10;52.20;;;;;;4890978;29;20036;-71
2022/05/03 09:55:58;;;;;;;30.83;21.50;;;21.70;52.00;;;;;;4879938;29;20040;-71
2022/05/03 09:58:25;;;;;;;32.03;22.15;;;21.70;49.80;;;;;;4893591;29;20109;-71
2022/05/03 10:00:51;;;;;;;34.53;23.17;;;21.70;53.60;;;;;;4901923;29;20279;-72
2022/05/03 10:03:17;;;;;;;29.55;22.58;;;22.00;52.30;;;;;;4901257;29;20605;-71
2022/05/03 10:05:47;;;;;;;30.13;21.55;;;22.30;53.20;;;;;;4896000;29;20507;-72
2022/05/03 10:08:16;;;;;;;30.60;22.65;;;22.60;48.10;;;;;;4890530;29;20505;-71
2022/05/03 10:10:43;;;;;;;29.13;22.27;;;22.30;51.70;;;;;;4888099;29;20127;-71
2022/05/03 10:13:13;;;;;;;30.48;21.15;;;21.70;49.10;;;;;;4896679;29;20036;-71
2022/05/03 10:21:23;;;;;;;27.98;20.40;;;20.60;57.30;;;;;;4894415;29;20100;-71
2022/05/03 10:24:05;;;;;;;28.23;21.23;;;20.10;58.50;;;;;;4892194;29;20479;-71
2022/05/03 10:26:50;;;;;;;30.33;21.77;;;19.90;59.20;;;;;;4890619;29;20040;-72
2022/05/03 10:29:15;;;;;;;26.88;20.55;;;20.20;53.60;;;;;;4900980;29;20039;-71
2022/05/03 10:32:06;;;;;;;26.23;19.20;;;20.60;55.70;;;;;;4895536;29;20103;-72
2022/05/03 10:34:49;;;;;;;27.50;20.17;;;21.50;51.90;;;;;;4905264;29;20174;-71
2022/05/03 10:37:38;;;;;;;27.60;20.63;;;22.20;52.20;;;;;;4902922;29;20028;-72
2022/05/03 10:40:12;;;;;;;25.30;18.77;;;22.60;48.30;;;;;;4874272;29;20110;-72
2022/05/03 10:42:38;;;;;;;27.20;20.20;;;22.30;48.50;;;;;;4904063;29;20123;-72
2022/05/03 10:45:13;;;;;;;28.85;21.17;;;22.20;50.80;;;;;;4903739;29;20036;-72
2022/05/03 10:47:45;;;;;;;24.58;19.50;;;22.10;48.00;;;;;;4893479;29;20032;-72
2022/05/03 10:50:11;;;;;;;27.63;21.23;;;21.90;53.70;;;;;;4900418;29;20570;-73
2022/05/03 10:52:37;;;;;;;28.98;21.35;;;21.50;49.00;;;;;;4902222;29;20095;-73
2022/05/03 10:55:07;;;;;;;29.88;22.17;;;20.90;51.30;;;;;;4900805;29;20032;-73
2022/05/03 10:57:53;;;;;;;26.60;19.73;;;20.50;53.90;;;;;;4898648;29;20593;-73
2022/05/03 11:00:57;;;;;;;30.45;22.30;;;20.60;55.20;;;;;;4901015;29;20052;-73
2022/05/03 11:03:23;;;;;;;26.63;20.95;;;20.50;52.10;;;;;;4901384;29;20043;-71
2022/05/03 11:06:26;;;;;;;27.27;19.83;;;20.30;54.40;;;;;;4893681;29;20036;-72
2022/05/03 11:11:46;;;;;;;30.15;21.85;;;19.40;55.90;;;;;;4904635;29;20044;-73
2022/05/03 11:14:19;;;;;;;31.40;21.98;;;19.10;59.20;;;;;;4906981;29;20020;-73
2022/05/03 11:16:47;;;;;;;27.80;21.92;;;18.70;61.40;;;;;;4907873;29;20042;-73
2022/05/03 11:19:18;;;;;;;29.58;22.08;;;18.40;61.70;;;;;;4905896;29;20024;-73
2022/05/03 11:21:45;;;;;;;31.58;21.15;;;18.60;62.00;;;;;;4904397;29;20036;-73
2022/05/03 11:24:24;;;;;;;31.30;21.65;;;18.90;61.30;;;;;;4906153;29;20936;-73
2022/05/03 11:26:52;;;;;;;32.58;22.33;;;19.30;58.00;;;;;;4905680;29;20039;-73
2022/05/03 11:29:18;;;;;;;29.17;21.17;;;19.80;63.50;;;;;;4908903;29;20027;-73
2022/05/03 11:31:50;;;;;;;30.98;21.70;;;20.50;55.70;;;;;;4908010;29;20043;-71
2022/05/03 11:34:17;;;;;;;29.60;20.73;;;20.50;55.30;;;;;;4904649;29;20100;-72
2022/05/03 11:36:44;;;;;;;28.55;20.30;;;20.40;58.60;;;;;;4907778;29;20048;-73
2022/05/03 11:39:10;;;;;;;29.30;21.20;;;21.10;56.20;;;;;;4903085;29;20087;-72
2022/05/03 11:41:37;;;;;;;26.67;19.73;;;21.20;51.10;;;;;;4904143;29;20251;-73
2022/05/03 11:44:03;;;;;;;30.50;21.02;;;21.70;51.30;;;;;;4906384;29;20056;-73
2022/05/03 11:46:29;;;;;;;25.88;19.70;;;21.90;50.20;;;;;;4903691;29;20066;-73
2022/05/03 11:49:01;;;;;;;27.05;20.05;;;22.10;50.50;;;;;;4904338;29;20516;-71
2022/05/03 11:57:35;;;;;;;26.83;19.35;;;21.90;52.40;;;;;;4885759;29;20047;-71
2022/05/03 12:00:04;;;;;;;27.52;19.05;;;22.10;54.10;;;;;;4914959;29;20518;-71
2022/05/03 12:02:37;;;;;;;26.83;18.42;;;21.90;49.40;;;;;;4907710;29;20087;-72
2022/05/03 12:05:18;;;;;;;26.45;18.20;;;21.80;50.90;;;;;;4906668;29;20630;-73
2022/05/03 12:07:48;;;;;;;35.10;18.52;;;21.50;52.80;;;;;;4900733;29;20927;-73
2022/05/03 12:10:16;;;;;;;26.85;18.83;;;21.70;53.40;;;;;;4891637;29;20036;-73
2022/05/03 12:12:45;;;;;;;26.05;18.45;;;21.40;52.20;;;;;;4907037;29;20036;-73
2022/05/03 12:15:28;;;;;;;24.83;17.77;;;21.60;53.00;;;;;;4908294;29;20036;-73
2022/05/03 12:18:00;;;;;;;25.23;18.65;;;22.10;52.80;;;;;;4903104;29;20024;-73
2022/05/03 12:20:48;;;;;;;24.17;18.63;;;22.30;49.40;;;;;;4905226;29;20046;-73
2022/05/03 12:23:24;;;;;;;25.73;18.00;;;22.40;52.00;;;;;;4566087;28;10000288;-72
2022/05/03 12:25:52;;;;;;;33.03;20.83;;;22.70;49.00;;;;;;4901461;29;20032;-73
2022/05/03 12:28:18;;;;;;;25.50;19.17;;;22.80;48.40;;;;;;4906088;29;20028;-73
2022/05/03 12:30:53;;;;;;;25.02;18.65;;;22.20;51.50;;;;;;4905482;29;20036;-73
2022/05/03 12:33:19;;;;;;;28.88;21.45;;;21.90;50.80;;;;;;4904848;29;20657;-74
2022/05/03 12:35:47;;;;;;;29.65;18.70;;;21.50;52.30;;;;;;4905672;29;20563;-72
2022/05/03 12:38:15;;;;;;;27.70;19.05;;;20.80;52.20;;;;;;4904115;29;20115;-71
2022/05/03 12:40:51;;;;;;;29.58;20.33;;;20.20;55.90;;;;;;4906925;29;20514;-71
2022/05/03 12:43:19;;;;;;;27.30;18.25;;;20.40;56.60;;;;;;4904952;29;20119;-71
2022/05/03 12:46:15;;;;;;;27.98;19.50;;;20.80;57.60;;;;;;4900164;29;20055;-71
2022/05/03 12:48:40;;;;;;;29.95;20.38;;;22.10;55.60;;;;;;4890922;29;20060;-72
2022/05/03 12:51:06;;;;;;;25.30;18.42;;;22.40;51.60;;;;;;4901083;29;20499;-71
2022/05/03 12:53:33;;;;;;;24.67;17.40;;;22.30;50.20;;;;;;4903065;29;20032;-71
2022/05/03 12:58:21;;;;;;;24.08;16.77;;;21.60;54.00;;;;;;4902501;29;20036;-71
2022/05/03 12:58:46;;;;;;;30.33;19.77;;;21.10;52.40;;;;;;4902650;29;20139;-72
2022/05/03 13:01:12;;;;;;;26.08;18.40;;;21.10;53.00;;;;;;4906340;29;20767;-71
2022/05/03 13:03:38;;;;;;;26.60;16.88;;;20.60;55.90;;;;;;4903073;29;20032;-71
2022/05/03 13:06:04;;;;;;;22.90;16.75;;;20.20;57.30;;;;;;4905987;29;20028;-72
2022/05/03 13:08:30;;;;;;;25.65;17.48;;;19.80;58.50;;;;;;4898226;29;20381;-72
2022/05/03 13:10:55;;;;;;;26.33;18.23;;;20.00;53.90;;;;;;4906189;29;20095;-71
2022/05/03 13:13:21;;;;;;;25.17;17.63;;;20.50;54.90;;;;;;4899540;29;20043;-72
2022/05/03 13:15:47;;;;;;;23.77;16.98;;;21.00;51.10;;;;;;4896673;29;20056;-72
2022/05/03 13:18:13;;;;;;;20.55;15.20;;;21.50;55.70;;;;;;4903304;29;20392;-72
2022/05/03 13:20:39;;;;;;;25.08;18.02;;;21.50;52.80;;;;;;4903474;29;20040;-71
2022/05/03 13:23:05;;;;;;;24.98;17.23;;;21.30;51.50;;;;;;4905341;29;20028;-71